createdAt,value
2023-04-04T00:06:17.773Z,12.10
2023-04-04T00:18:17.757Z,12.08
2023-04-04T00:30:17.767Z,12.07
2023-04-04T00:42:17.677Z,12.06
2023-04-04T00:54:17.779Z,12.05
2023-04-04T01:06:17.668Z,12.03
2023-04-04T01:18:17.792Z,12.03
2023-04-04T01:30:17.676Z,12.01
2023-04-04T01:42:17.680Z,11.99
2023-04-04T01:54:17.772Z,11.99
2023-04-04T02:06:17.787Z,11.98
2023-04-04T02:18:17.777Z,11.97
2023-04-04T02:30:17.681Z,11.95
2023-04-04T02:42:17.789Z,11.95
2023-04-04T02:54:17.781Z,11.93
2023-04-04T03:06:17.675Z,11.93
2023-04-04T03:18:17.785Z,11.91
2023-04-04T03:30:17.750Z,11.90
2023-04-04T03:42:17.782Z,11.89
2023-04-04T03:54:17.747Z,11.88
2023-04-04T04:06:17.779Z,11.87
2023-04-04T04:18:17.785Z,11.86
2023-04-04T04:30:17.678Z,11.85
2023-04-04T04:42:17.678Z,11.84
2023-04-04T04:54:17.803Z,11.83
2023-04-04T05:06:17.827Z,11.82
2023-04-04T05:18:17.762Z,11.81
2023-04-04T05:30:17.684Z,11.80
2023-04-04T05:42:17.782Z,11.80
2023-04-04T05:54:17.910Z,11.81
2023-04-04T06:06:17.875Z,11.84
2023-04-04T06:26:07.046Z,11.92
2023-04-04T06:38:07.086Z,12.03
2023-04-04T06:50:07.028Z,12.11
2023-04-04T07:02:07.009Z,12.19
2023-04-04T07:14:06.990Z,12.35
2023-04-04T07:26:07.063Z,12.46
2023-04-04T07:38:06.986Z,12.60
2023-04-04T07:50:07.047Z,12.64
2023-04-04T08:02:06.972Z,12.64
2023-04-04T08:14:07.066Z,12.62
2023-04-04T08:26:06.974Z,12.63
2023-04-04T08:38:07.006Z,12.63
2023-04-04T08:50:07.029Z,12.63
2023-04-04T09:02:07.116Z,12.64
2023-04-04T09:14:07.060Z,12.64
2023-04-04T09:26:06.995Z,12.64
2023-04-04T09:38:07.075Z,12.64
2023-04-04T09:50:07.072Z,12.63
2023-04-04T10:02:07.103Z,12.62
2023-04-04T10:14:07.050Z,12.64
2023-04-04T10:26:07.080Z,12.62
2023-04-04T10:38:07.077Z,12.61
2023-04-04T10:50:07.104Z,12.62
2023-04-04T11:02:07.077Z,12.62
2023-04-04T11:14:06.989Z,12.62
2023-04-04T11:26:07.085Z,12.61
2023-04-04T11:38:07.095Z,12.61
2023-04-04T11:50:07.092Z,12.61
2023-04-04T12:02:06.984Z,12.60
2023-04-04T12:14:07.048Z,12.60
2023-04-04T12:26:07.091Z,12.60
2023-04-04T12:38:07.117Z,12.63
2023-04-04T12:50:08.286Z,12.62
2023-04-04T13:02:07.094Z,12.62
2023-04-04T13:14:07.013Z,12.62
2023-04-04T13:26:06.982Z,12.62
2023-04-04T13:38:07.515Z,12.62
2023-04-04T13:50:07.089Z,12.62
2023-04-04T14:02:07.066Z,12.62
2023-04-04T14:14:07.046Z,12.62
2023-04-04T14:26:06.976Z,12.62
2023-04-04T14:38:07.088Z,12.62
2023-04-04T14:50:06.971Z,12.62
2023-04-04T15:02:06.995Z,12.62
2023-04-04T15:14:07.067Z,12.62
2023-04-04T15:26:06.984Z,12.59
2023-04-04T15:38:07.008Z,12.59
2023-04-04T15:50:07.086Z,12.59
2023-04-04T16:02:07.105Z,12.59
2023-04-04T16:14:07.109Z,12.57
2023-04-04T16:26:07.085Z,12.58
2023-04-04T16:38:07.062Z,12.58
2023-04-04T16:50:06.995Z,12.57
2023-04-04T17:02:07.100Z,12.56
2023-04-04T17:14:07.082Z,12.55
2023-04-04T17:26:07.062Z,12.54
2023-04-04T17:38:07.005Z,12.53
2023-04-04T17:50:06.982Z,12.51
2023-04-04T18:02:07.084Z,12.50
2023-04-04T18:14:06.991Z,12.47
2023-04-04T18:26:06.981Z,12.47
2023-04-04T18:38:06.988Z,12.45
2023-04-04T18:50:07.099Z,12.43
2023-04-04T19:02:06.977Z,12.42
2023-04-04T19:14:09.083Z,12.41
2023-04-04T19:26:07.120Z,12.40
2023-04-04T19:38:06.995Z,12.38
2023-04-04T19:50:07.066Z,12.36
2023-04-04T20:02:07.180Z,12.36
2023-04-04T20:14:07.139Z,12.35
2023-04-04T20:26:07.044Z,12.32
2023-04-04T20:38:07.027Z,12.32
2023-04-04T20:50:07.093Z,12.30
2023-04-04T21:02:07.094Z,12.30
2023-04-04T21:14:07.060Z,12.28
2023-04-04T21:26:07.099Z,12.27
2023-04-04T21:38:07.086Z,12.25
2023-04-04T21:50:06.982Z,12.24
2023-04-04T22:02:07.098Z,12.22
2023-04-04T22:14:08.029Z,12.22
2023-04-04T22:26:07.107Z,12.21
2023-04-04T22:38:07.085Z,12.20
2023-04-04T22:50:07.120Z,12.19
2023-04-04T23:02:07.361Z,12.17
2023-04-04T23:14:07.101Z,12.17
2023-04-04T23:26:07.104Z,12.15
2023-04-04T23:38:07.065Z,12.14
2023-04-04T23:50:07.701Z,12.11
